DAL1694 KMSP-KFSD
Flight info
| Callsign | DAL1694 |
|---|---|
| Flight time | 0h 37m |
| Altitude | 24000 |
| Route | SCHEP1 RXANN FSD |
| Aircraft | A319/M-SDE3FGHIRWY/LB1 |
Departure
| Time | 2026-04-12 07:55 |
|---|---|
| Airport | Minneapolis–Saint Paul International Airport / Wold–Chamberlain Field (KMSP) |
Arrival
| Time | 2026-04-12 08:32 |
|---|---|
| Airport | Sioux Falls Regional Airport (KFSD) |
| Time | Latitude | Longitude | Altitude | Speed | Heading |
|---|---|---|---|---|---|
| 2026-04-12 07:32 | 44.88216 | -93.21349 | 823 ft | 0 kts | 123° |
| 2026-04-12 07:45 | 44.88222 | -93.21363 | 825 ft | 3 kts | 123° |
| 2026-04-12 07:46 | 44.88232 | -93.21385 | 825 ft | 3 kts | 123° |
| 2026-04-12 07:46 | 44.88245 | -93.21402 | 825 ft | 3 kts | 154° |
| 2026-04-12 07:46 | 44.88252 | -93.21407 | 825 ft | 0 kts | 162° |
| 2026-04-12 07:49 | 44.88251 | -93.21407 | 825 ft | 0 kts | 163° |
| 2026-04-12 07:49 | 44.88234 | -93.21408 | 819 ft | 5 kts | 189° |
| 2026-04-12 07:50 | 44.88199 | -93.21456 | 825 ft | 10 kts | 229° |
| 2026-04-12 07:50 | 44.88145 | -93.21549 | 823 ft | 15 kts | 233° |
| 2026-04-12 07:50 | 44.88161 | -93.21694 | 825 ft | 19 kts | 305° |
| 2026-04-12 07:50 | 44.88240 | -93.21863 | 825 ft | 21 kts | 300° |
| 2026-04-12 07:51 | 44.88313 | -93.22040 | 823 ft | 21 kts | 301° |
| 2026-04-12 07:51 | 44.88391 | -93.22219 | 825 ft | 22 kts | 302° |
| 2026-04-12 07:51 | 44.88471 | -93.22401 | 824 ft | 22 kts | 301° |
| 2026-04-12 07:51 | 44.88548 | -93.22585 | 823 ft | 22 kts | 301° |
| 2026-04-12 07:52 | 44.88626 | -93.22767 | 822 ft | 22 kts | 302° |
| 2026-04-12 07:52 | 44.88704 | -93.22945 | 825 ft | 21 kts | 302° |
| 2026-04-12 07:52 | 44.88780 | -93.23122 | 825 ft | 21 kts | 301° |
| 2026-04-12 07:52 | 44.88853 | -93.23291 | 825 ft | 16 kts | 296° |
| 2026-04-12 07:53 | 44.88853 | -93.23334 | 825 ft | 0 kts | 247° |
| 2026-04-12 07:53 | 44.88837 | -93.23363 | 821 ft | 8 kts | 223° |
| 2026-04-12 07:53 | 44.88770 | -93.23397 | 827 ft | 12 kts | 160° |
| 2026-04-12 07:54 | 44.88732 | -93.23311 | 827 ft | 11 kts | 122° |
| 2026-04-12 07:54 | 44.88632 | -93.23079 | 824 ft | 62 kts | 121° |
| 2026-04-12 07:54 | 44.88284 | -93.22277 | 824 ft | 127 kts | 122° |
| 2026-04-12 07:54 | 44.87734 | -93.21053 | 1082 ft | 154 kts | 123° |
| 2026-04-12 07:55 | 44.87159 | -93.19801 | 1880 ft | 151 kts | 131° |
| 2026-04-12 07:55 | 44.86617 | -93.18540 | 2516 ft | 159 kts | 128° |
| 2026-04-12 07:55 | 44.86202 | -93.16988 | 2850 ft | 186 kts | 123° |
| 2026-04-12 07:55 | 44.85777 | -93.15093 | 3203 ft | 211 kts | 122° |
| 2026-04-12 07:56 | 44.85265 | -93.13061 | 3519 ft | 224 kts | 133° |
| 2026-04-12 07:56 | 44.84220 | -93.11500 | 3864 ft | 223 kts | 156° |
| 2026-04-12 07:56 | 44.82823 | -93.10518 | 4263 ft | 227 kts | 180° |
| 2026-04-12 07:56 | 44.81288 | -93.10726 | 4880 ft | 222 kts | 210° |
| 2026-04-12 07:57 | 44.80103 | -93.12087 | 5631 ft | 225 kts | 236° |
| 2026-04-12 07:57 | 44.79302 | -93.14028 | 6430 ft | 233 kts | 242° |
| 2026-04-12 07:57 | 44.78513 | -93.16023 | 7229 ft | 240 kts | 241° |
| 2026-04-12 07:57 | 44.77689 | -93.18097 | 8055 ft | 246 kts | 240° |
| 2026-04-12 07:58 | 44.76840 | -93.20226 | 8844 ft | 252 kts | 240° |
| 2026-04-12 07:58 | 44.75971 | -93.22401 | 9685 ft | 258 kts | 240° |
| 2026-04-12 07:58 | 44.75074 | -93.24646 | 10286 ft | 272 kts | 240° |
| 2026-04-12 07:58 | 44.74104 | -93.27069 | 10578 ft | 296 kts | 240° |
| 2026-04-12 07:59 | 44.73058 | -93.29678 | 10946 ft | 314 kts | 240° |
| 2026-04-12 07:59 | 44.71972 | -93.32390 | 11606 ft | 321 kts | 240° |
| 2026-04-12 07:59 | 44.70867 | -93.35151 | 12349 ft | 326 kts | 240° |
| 2026-04-12 07:59 | 44.69746 | -93.37947 | 13090 ft | 331 kts | 240° |
| 2026-04-12 08:00 | 44.68604 | -93.40781 | 13782 ft | 336 kts | 240° |
| 2026-04-12 08:00 | 44.67446 | -93.43651 | 14410 ft | 339 kts | 240° |
| 2026-04-12 08:00 | 44.66277 | -93.46553 | 15093 ft | 343 kts | 240° |
| 2026-04-12 08:00 | 44.65112 | -93.49445 | 15749 ft | 346 kts | 240° |
| 2026-04-12 08:01 | 44.63922 | -93.52396 | 16414 ft | 350 kts | 240° |
| 2026-04-12 08:01 | 44.62717 | -93.55382 | 17084 ft | 353 kts | 240° |
| 2026-04-12 08:01 | 44.61500 | -93.58394 | 17750 ft | 356 kts | 240° |
| 2026-04-12 08:01 | 44.60272 | -93.61426 | 18365 ft | 360 kts | 240° |
| 2026-04-12 08:02 | 44.59029 | -93.64494 | 18943 ft | 363 kts | 240° |
| 2026-04-12 08:02 | 44.57778 | -93.67580 | 19538 ft | 365 kts | 240° |
| 2026-04-12 08:02 | 44.56519 | -93.70688 | 20137 ft | 368 kts | 240° |
| 2026-04-12 08:02 | 44.55268 | -93.73775 | 20713 ft | 370 kts | 240° |
| 2026-04-12 08:03 | 44.53989 | -93.76922 | 21272 ft | 373 kts | 241° |
| 2026-04-12 08:03 | 44.52698 | -93.80088 | 21835 ft | 376 kts | 241° |
| 2026-04-12 08:03 | 44.51443 | -93.83315 | 22380 ft | 378 kts | 246° |
| 2026-04-12 08:03 | 44.50464 | -93.86738 | 22921 ft | 380 kts | 249° |
| 2026-04-12 08:04 | 44.49502 | -93.90201 | 23453 ft | 382 kts | 249° |
| 2026-04-12 08:04 | 44.48545 | -93.93680 | 23750 ft | 383 kts | 249° |
| 2026-04-12 08:04 | 44.47586 | -93.97165 | 23822 ft | 384 kts | 249° |
| 2026-04-12 08:04 | 44.46619 | -94.00657 | 23843 ft | 385 kts | 249° |
| 2026-04-12 08:05 | 44.45649 | -94.04138 | 23841 ft | 385 kts | 249° |
| 2026-04-12 08:05 | 44.44687 | -94.07583 | 23843 ft | 385 kts | 249° |
| 2026-04-12 08:05 | 44.43713 | -94.11067 | 23845 ft | 385 kts | 249° |
| 2026-04-12 08:05 | 44.42740 | -94.14550 | 23825 ft | 385 kts | 249° |
| 2026-04-12 08:06 | 44.41766 | -94.18036 | 23817 ft | 384 kts | 249° |
| 2026-04-12 08:06 | 44.40790 | -94.21522 | 23813 ft | 385 kts | 249° |
| 2026-04-12 08:06 | 44.39810 | -94.25008 | 23807 ft | 386 kts | 249° |
| 2026-04-12 08:06 | 44.38826 | -94.28497 | 23800 ft | 386 kts | 249° |
| 2026-04-12 08:07 | 44.37841 | -94.31986 | 23794 ft | 386 kts | 249° |
| 2026-04-12 08:07 | 44.36857 | -94.35475 | 23791 ft | 386 kts | 249° |
| 2026-04-12 08:07 | 44.35871 | -94.38966 | 23786 ft | 386 kts | 249° |
| 2026-04-12 08:07 | 44.34897 | -94.42406 | 23787 ft | 386 kts | 249° |
| 2026-04-12 08:08 | 44.33911 | -94.45891 | 23788 ft | 386 kts | 249° |
| 2026-04-12 08:08 | 44.32924 | -94.49377 | 23774 ft | 385 kts | 249° |
| 2026-04-12 08:08 | 44.31936 | -94.52855 | 23788 ft | 385 kts | 249° |
| 2026-04-12 08:08 | 44.30949 | -94.56320 | 23788 ft | 384 kts | 248° |
| 2026-04-12 08:09 | 44.29962 | -94.59784 | 23801 ft | 384 kts | 248° |
| 2026-04-12 08:09 | 44.28976 | -94.63244 | 23820 ft | 384 kts | 248° |
| 2026-04-12 08:09 | 44.27990 | -94.66699 | 23823 ft | 383 kts | 248° |
| 2026-04-12 08:09 | 44.27013 | -94.70109 | 23822 ft | 383 kts | 248° |
| 2026-04-12 08:10 | 44.26024 | -94.73558 | 23803 ft | 383 kts | 248° |
| 2026-04-12 08:10 | 44.25034 | -94.77003 | 23806 ft | 383 kts | 248° |
| 2026-04-12 08:10 | 44.24041 | -94.80456 | 23801 ft | 383 kts | 248° |
| 2026-04-12 08:10 | 44.23051 | -94.83901 | 23800 ft | 383 kts | 248° |
| 2026-04-12 08:11 | 44.22059 | -94.87344 | 23797 ft | 382 kts | 248° |
| 2026-04-12 08:11 | 44.21068 | -94.90785 | 23785 ft | 382 kts | 248° |
| 2026-04-12 08:11 | 44.20079 | -94.94220 | 23784 ft | 382 kts | 248° |
| 2026-04-12 08:11 | 44.19085 | -94.97659 | 23799 ft | 383 kts | 248° |
| 2026-04-12 08:12 | 44.18086 | -95.01099 | 23792 ft | 383 kts | 248° |
| 2026-04-12 08:12 | 44.17100 | -95.04495 | 23781 ft | 383 kts | 248° |
| 2026-04-12 08:12 | 44.16103 | -95.07938 | 23780 ft | 383 kts | 248° |
| 2026-04-12 08:12 | 44.15105 | -95.11377 | 23778 ft | 384 kts | 248° |
| 2026-04-12 08:13 | 44.14101 | -95.14821 | 23772 ft | 384 kts | 247° |
| 2026-04-12 08:13 | 44.13095 | -95.18267 | 23762 ft | 384 kts | 247° |
| 2026-04-12 08:13 | 44.12095 | -95.21702 | 23757 ft | 384 kts | 248° |
| 2026-04-12 08:13 | 44.11090 | -95.25147 | 23753 ft | 384 kts | 247° |
| 2026-04-12 08:14 | 44.10084 | -95.28583 | 23735 ft | 383 kts | 247° |
| 2026-04-12 08:14 | 44.09090 | -95.31968 | 23738 ft | 383 kts | 247° |
| 2026-04-12 08:14 | 44.08082 | -95.35391 | 23742 ft | 383 kts | 247° |
| 2026-04-12 08:14 | 44.07074 | -95.38811 | 23740 ft | 383 kts | 247° |
| 2026-04-12 08:15 | 44.06064 | -95.42238 | 23739 ft | 383 kts | 247° |
| 2026-04-12 08:15 | 44.05054 | -95.45663 | 23739 ft | 383 kts | 247° |
| 2026-04-12 08:15 | 44.04040 | -95.49083 | 23734 ft | 383 kts | 247° |
| 2026-04-12 08:15 | 44.03025 | -95.52507 | 23734 ft | 383 kts | 247° |
| 2026-04-12 08:16 | 44.02013 | -95.55927 | 23735 ft | 383 kts | 247° |
| 2026-04-12 08:16 | 44.01002 | -95.59349 | 23745 ft | 383 kts | 247° |
| 2026-04-12 08:16 | 44.00036 | -95.62790 | 23628 ft | 381 kts | 248° |
| 2026-04-12 08:16 | 43.99133 | -95.66192 | 22341 ft | 383 kts | 249° |
| 2026-04-12 08:17 | 43.98238 | -95.69707 | 20983 ft | 387 kts | 250° |
| 2026-04-12 08:17 | 43.97354 | -95.73232 | 19885 ft | 386 kts | 250° |
| 2026-04-12 08:17 | 43.96475 | -95.76736 | 18905 ft | 382 kts | 249° |
| 2026-04-12 08:17 | 43.95599 | -95.80197 | 17982 ft | 378 kts | 249° |
| 2026-04-12 08:18 | 43.94720 | -95.83622 | 16978 ft | 374 kts | 249° |
| 2026-04-12 08:18 | 43.93845 | -95.87000 | 16082 ft | 368 kts | 249° |
| 2026-04-12 08:18 | 43.92978 | -95.90318 | 15170 ft | 364 kts | 249° |
| 2026-04-12 08:18 | 43.92119 | -95.93598 | 14277 ft | 359 kts | 248° |
| 2026-04-12 08:19 | 43.91287 | -95.96780 | 13477 ft | 353 kts | 248° |
| 2026-04-12 08:19 | 43.90472 | -95.99909 | 12945 ft | 337 kts | 248° |
| 2026-04-12 08:19 | 43.89694 | -96.02889 | 12477 ft | 321 kts | 248° |
| 2026-04-12 08:19 | 43.88949 | -96.05737 | 12018 ft | 307 kts | 248° |
| 2026-04-12 08:20 | 43.88228 | -96.08478 | 11580 ft | 301 kts | 248° |
| 2026-04-12 08:20 | 43.87508 | -96.11210 | 11125 ft | 302 kts | 248° |
| 2026-04-12 08:20 | 43.86789 | -96.13940 | 10689 ft | 300 kts | 248° |
| 2026-04-12 08:20 | 43.86088 | -96.16604 | 10541 ft | 289 kts | 248° |
| 2026-04-12 08:21 | 43.85412 | -96.19172 | 10409 ft | 278 kts | 248° |
| 2026-04-12 08:21 | 43.84755 | -96.21657 | 10153 ft | 273 kts | 248° |
| 2026-04-12 08:21 | 43.84115 | -96.24077 | 9948 ft | 269 kts | 248° |
| 2026-04-12 08:21 | 43.83469 | -96.26514 | 9832 ft | 269 kts | 248° |
| 2026-04-12 08:22 | 43.82823 | -96.28947 | 9719 ft | 269 kts | 248° |
| 2026-04-12 08:22 | 43.82176 | -96.31383 | 9275 ft | 274 kts | 248° |
| 2026-04-12 08:22 | 43.81523 | -96.33850 | 8931 ft | 269 kts | 248° |
| 2026-04-12 08:22 | 43.80886 | -96.36252 | 8352 ft | 265 kts | 248° |
| 2026-04-12 08:23 | 43.80253 | -96.38632 | 7741 ft | 262 kts | 248° |
| 2026-04-12 08:23 | 43.79627 | -96.40980 | 7284 ft | 259 kts | 248° |
| 2026-04-12 08:23 | 43.79014 | -96.43287 | 6780 ft | 262 kts | 249° |
| 2026-04-12 08:23 | 43.78376 | -96.45682 | 6170 ft | 268 kts | 249° |
| 2026-04-12 08:24 | 43.78176 | -96.46433 | 6047 ft | 266 kts | 249° |
| 2026-04-12 08:24 | 43.78046 | -96.46919 | 6004 ft | 265 kts | 249° |
| 2026-04-12 08:24 | 43.77913 | -96.47429 | 5986 ft | 259 kts | 249° |
| 2026-04-12 08:24 | 43.77417 | -96.49754 | 5782 ft | 246 kts | 250° |
| 2026-04-12 08:25 | 43.76863 | -96.51880 | 5666 ft | 223 kts | 247° |
| 2026-04-12 08:25 | 43.76325 | -96.53784 | 5569 ft | 202 kts | 246° |
| 2026-04-12 08:25 | 43.75830 | -96.55526 | 5484 ft | 189 kts | 246° |
| 2026-04-12 08:25 | 43.75376 | -96.57142 | 5395 ft | 173 kts | 246° |
| 2026-04-12 08:26 | 43.74729 | -96.58500 | 5134 ft | 167 kts | 225° |
| 2026-04-12 08:26 | 43.73819 | -96.59426 | 4887 ft | 158 kts | 219° |
| 2026-04-12 08:26 | 43.73127 | -96.60092 | 4720 ft | 149 kts | 219° |
| 2026-04-12 08:26 | 43.72823 | -96.60384 | 4649 ft | 145 kts | 219° |
| 2026-04-12 08:27 | 43.72608 | -96.60591 | 4598 ft | 142 kts | 219° |
| 2026-04-12 08:27 | 43.71982 | -96.61198 | 4458 ft | 135 kts | 219° |
| 2026-04-12 08:27 | 43.71226 | -96.61926 | 4277 ft | 131 kts | 218° |
| 2026-04-12 08:27 | 43.70484 | -96.62643 | 4105 ft | 130 kts | 217° |
| 2026-04-12 08:28 | 43.69750 | -96.63352 | 3942 ft | 128 kts | 216° |
| 2026-04-12 08:28 | 43.69025 | -96.64051 | 3787 ft | 126 kts | 216° |
| 2026-04-12 08:28 | 43.68307 | -96.64744 | 3616 ft | 126 kts | 214° |
| 2026-04-12 08:28 | 43.67595 | -96.65430 | 3452 ft | 126 kts | 214° |
| 2026-04-12 08:29 | 43.66880 | -96.66119 | 3286 ft | 125 kts | 212° |
| 2026-04-12 08:29 | 43.66167 | -96.66806 | 3127 ft | 124 kts | 212° |
| 2026-04-12 08:29 | 43.65460 | -96.67488 | 2964 ft | 123 kts | 211° |
| 2026-04-12 08:29 | 43.64759 | -96.68162 | 2804 ft | 122 kts | 209° |
| 2026-04-12 08:30 | 43.64054 | -96.68842 | 2629 ft | 123 kts | 209° |
| 2026-04-12 08:30 | 43.63337 | -96.69531 | 2457 ft | 124 kts | 208° |
| 2026-04-12 08:30 | 43.62629 | -96.70211 | 2302 ft | 123 kts | 210° |
| 2026-04-12 08:30 | 43.61936 | -96.70878 | 2127 ft | 124 kts | 210° |
| 2026-04-12 08:31 | 43.61223 | -96.71564 | 1950 ft | 124 kts | 211° |
| 2026-04-12 08:31 | 43.60519 | -96.72241 | 1787 ft | 125 kts | 212° |
| 2026-04-12 08:31 | 43.59822 | -96.72926 | 1618 ft | 123 kts | 210° |
| 2026-04-12 08:31 | 43.59135 | -96.73578 | 1453 ft | 115 kts | 210° |
| 2026-04-12 08:32 | 43.58577 | -96.74109 | 1435 ft | 75 kts | 216° |
| 2026-04-12 08:32 | 43.58269 | -96.74413 | 1433 ft | 42 kts | 215° |
| 2026-04-12 08:32 | 43.58154 | -96.74435 | 1433 ft | 8 kts | 113° |
| 2026-04-12 08:32 | 43.58140 | -96.74362 | 1434 ft | 8 kts | 109° |
| 2026-04-12 08:33 | 43.58120 | -96.74309 | 1434 ft | 6 kts | 121° |
| 2026-04-12 08:33 | 43.58092 | -96.74223 | 1434 ft | 16 kts | 106° |
| 2026-04-12 08:33 | 43.58060 | -96.74048 | 1434 ft | 21 kts | 102° |
| 2026-04-12 08:33 | 43.58034 | -96.73864 | 1434 ft | 16 kts | 98° |
| 2026-04-12 08:34 | 43.58044 | -96.73700 | 1435 ft | 20 kts | 68° |
| 2026-04-12 08:34 | 43.58045 | -96.73538 | 1434 ft | 14 kts | 101° |
| 2026-04-12 08:34 | 43.58027 | -96.73432 | 1434 ft | 7 kts | 78° |
| 2026-04-12 08:34 | 43.58030 | -96.73401 | 1434 ft | 0 kts | 85° |
| 2026-04-12 08:35 | 43.58030 | -96.73398 | 1434 ft | 0 kts | 85° |